sensor_id;sensor_type;location;lat;lon;timestamp;P1;durP1;ratioP1;P2;durP2;ratioP2
1024;SDS011;501;48.214;11.350;2023-12-22T00:13:29;1.00;;;0.27;;
1024;SDS011;501;48.214;11.350;2023-12-22T00:15:55;0.40;;;0.23;;
1024;SDS011;501;48.214;11.350;2023-12-22T00:18:21;2.10;;;0.20;;
1024;SDS011;501;48.214;11.350;2023-12-22T00:20:49;0.47;;;0.20;;
1024;SDS011;501;48.214;11.350;2023-12-22T00:50:56;0.67;;;0.30;;
1024;SDS011;501;48.214;11.350;2023-12-22T00:53:21;0.83;;;0.40;;
1024;SDS011;501;48.214;11.350;2023-12-22T00:55:47;0.50;;;0.30;;
1024;SDS011;501;48.214;11.350;2023-12-22T00:58:18;0.30;;;0.23;;
1024;SDS011;501;48.214;11.350;2023-12-22T01:00:43;0.87;;;0.40;;
1024;SDS011;501;48.214;11.350;2023-12-22T01:03:09;0.60;;;0.47;;
1024;SDS011;501;48.214;11.350;2023-12-22T01:05:36;0.50;;;0.50;;
1024;SDS011;501;48.214;11.350;2023-12-22T01:08:03;0.40;;;0.40;;
1024;SDS011;501;48.214;11.350;2023-12-22T01:10:29;0.50;;;0.30;;
1024;SDS011;501;48.214;11.350;2023-12-22T01:23:38;0.60;;;0.30;;
1024;SDS011;501;48.214;11.350;2023-12-22T01:26:04;0.30;;;0.30;;
1024;SDS011;501;48.214;11.350;2023-12-22T01:28:30;0.30;;;0.20;;
1024;SDS011;501;48.214;11.350;2023-12-22T01:30:55;1.10;;;0.50;;
1024;SDS011;501;48.214;11.350;2023-12-22T02:04:24;0.70;;;0.43;;
1024;SDS011;501;48.214;11.350;2023-12-22T02:06:51;0.70;;;0.33;;
1024;SDS011;501;48.214;11.350;2023-12-22T02:09:18;0.60;;;0.30;;
1024;SDS011;501;48.214;11.350;2023-12-22T02:11:44;0.50;;;0.30;;
1024;SDS011;501;48.214;11.350;2023-12-22T02:14:09;0.30;;;0.30;;
1024;SDS011;501;48.214;11.350;2023-12-22T02:16:40;0.50;;;0.43;;
1024;SDS011;501;48.214;11.350;2023-12-22T02:22:09;0.30;;;0.20;;
1024;SDS011;501;48.214;11.350;2023-12-22T02:24:36;0.30;;;0.20;;
1024;SDS011;501;48.214;11.350;2023-12-22T02:29:46;0.40;;;0.30;;
1024;SDS011;501;48.214;11.350;2023-12-22T02:32:21;0.30;;;0.20;;
1024;SDS011;501;48.214;11.350;2023-12-22T02:34:50;0.30;;;0.20;;
1024;SDS011;501;48.214;11.350;2023-12-22T02:37:18;0.43;;;0.20;;
1024;SDS011;501;48.214;11.350;2023-12-22T02:39:46;1.10;;;0.20;;
1024;SDS011;501;48.214;11.350;2023-12-22T02:42:12;0.30;;;0.20;;
1024;SDS011;501;48.214;11.350;2023-12-22T02:44:39;0.30;;;0.20;;
1024;SDS011;501;48.214;11.350;2023-12-22T02:47:05;0.57;;;0.40;;
1024;SDS011;501;48.214;11.350;2023-12-22T02:49:31;0.30;;;0.20;;
1024;SDS011;501;48.214;11.350;2023-12-22T02:51:56;0.30;;;0.20;;
1024;SDS011;501;48.214;11.350;2023-12-22T02:54:22;0.30;;;0.20;;
1024;SDS011;501;48.214;11.350;2023-12-22T02:56:47;0.43;;;0.40;;
1024;SDS011;501;48.214;11.350;2023-12-22T02:59:16;0.70;;;0.30;;
1024;SDS011;501;48.214;11.350;2023-12-22T03:01:41;0.30;;;0.23;;
1024;SDS011;501;48.214;11.350;2023-12-22T03:04:07;0.30;;;0.20;;
1024;SDS011;501;48.214;11.350;2023-12-22T03:06:33;0.30;;;0.20;;
1024;SDS011;501;48.214;11.350;2023-12-22T03:08:58;0.97;;;0.33;;
1024;SDS011;501;48.214;11.350;2023-12-22T03:11:24;0.60;;;0.20;;
1024;SDS011;501;48.214;11.350;2023-12-22T03:13:50;0.40;;;0.20;;
1024;SDS011;501;48.214;11.350;2023-12-22T03:16:15;0.40;;;0.30;;
1024;SDS011;501;48.214;11.350;2023-12-22T03:18:41;0.60;;;0.30;;
1024;SDS011;501;48.214;11.350;2023-12-22T03:21:07;0.30;;;0.20;;
1024;SDS011;501;48.214;11.350;2023-12-22T03:23:32;0.40;;;0.20;;
1024;SDS011;501;48.214;11.350;2023-12-22T03:26:02;0.30;;;0.20;;
1024;SDS011;501;48.214;11.350;2023-12-22T03:28:28;0.30;;;0.30;;
1024;SDS011;501;48.214;11.350;2023-12-22T03:30:54;0.30;;;0.20;;
1024;SDS011;501;48.214;11.350;2023-12-22T03:33:19;0.40;;;0.37;;
1024;SDS011;501;48.214;11.350;2023-12-22T03:35:45;0.50;;;0.20;;
1024;SDS011;501;48.214;11.350;2023-12-22T03:38:10;0.40;;;0.20;;
1024;SDS011;501;48.214;11.350;2023-12-22T03:40:36;0.20;;;0.10;;
1024;SDS011;501;48.214;11.350;2023-12-22T03:43:02;0.30;;;0.20;;
1024;SDS011;501;48.214;11.350;2023-12-22T03:45:27;0.53;;;0.30;;
1024;SDS011;501;48.214;11.350;2023-12-22T03:47:53;0.30;;;0.30;;
1024;SDS011;501;48.214;11.350;2023-12-22T03:50:19;0.47;;;0.30;;
1024;SDS011;501;48.214;11.350;2023-12-22T03:52:44;0.40;;;0.40;;
1024;SDS011;501;48.214;11.350;2023-12-22T03:55:10;0.60;;;0.40;;
1024;SDS011;501;48.214;11.350;2023-12-22T03:57:35;0.63;;;0.63;;
1024;SDS011;501;48.214;11.350;2023-12-22T04:00:01;1.30;;;0.77;;
1024;SDS011;501;48.214;11.350;2023-12-22T04:02:27;1.83;;;1.43;;
1024;SDS011;501;48.214;11.350;2023-12-22T04:04:52;1.30;;;0.87;;
1024;SDS011;501;48.214;11.350;2023-12-22T04:07:18;3.23;;;0.60;;
1024;SDS011;501;48.214;11.350;2023-12-22T04:09:44;1.13;;;0.50;;
1024;SDS011;501;48.214;11.350;2023-12-22T04:12:09;1.60;;;0.60;;
1024;SDS011;501;48.214;11.350;2023-12-22T04:14:35;0.90;;;0.70;;
1024;SDS011;501;48.214;11.350;2023-12-22T04:17:01;1.10;;;0.50;;
1024;SDS011;501;48.214;11.350;2023-12-22T04:19:26;1.67;;;0.83;;
1024;SDS011;501;48.214;11.350;2023-12-22T04:21:52;0.53;;;0.50;;
1024;SDS011;501;48.214;11.350;2023-12-22T04:24:17;1.83;;;0.63;;
1024;SDS011;501;48.214;11.350;2023-12-22T04:26:43;3.57;;;1.00;;
1024;SDS011;501;48.214;11.350;2023-12-22T04:29:08;2.10;;;0.60;;
1024;SDS011;501;48.214;11.350;2023-12-22T04:31:34;0.77;;;0.50;;
1024;SDS011;501;48.214;11.350;2023-12-22T04:34:00;4.73;;;0.63;;
1024;SDS011;501;48.214;11.350;2023-12-22T04:36:25;1.37;;;0.70;;
1024;SDS011;501;48.214;11.350;2023-12-22T04:38:51;1.27;;;0.53;;
1024;SDS011;501;48.214;11.350;2023-12-22T04:41:16;3.57;;;0.83;;
1024;SDS011;501;48.214;11.350;2023-12-22T04:43:42;2.27;;;1.00;;
1024;SDS011;501;48.214;11.350;2023-12-22T04:46:08;1.73;;;0.70;;
1024;SDS011;501;48.214;11.350;2023-12-22T04:48:34;2.40;;;0.87;;
1024;SDS011;501;48.214;11.350;2023-12-22T04:50:59;0.87;;;0.63;;
1024;SDS011;501;48.214;11.350;2023-12-22T04:53:25;1.40;;;0.70;;
1024;SDS011;501;48.214;11.350;2023-12-22T04:55:50;2.20;;;0.77;;
1024;SDS011;501;48.214;11.350;2023-12-22T04:58:16;0.77;;;0.60;;
1024;SDS011;501;48.214;11.350;2023-12-22T05:00:42;2.50;;;0.83;;
1024;SDS011;501;48.214;11.350;2023-12-22T05:03:07;2.20;;;0.60;;
1024;SDS011;501;48.214;11.350;2023-12-22T05:05:33;0.80;;;0.53;;
1024;SDS011;501;48.214;11.350;2023-12-22T05:07:59;2.20;;;0.90;;
1024;SDS011;501;48.214;11.350;2023-12-22T05:10:24;3.40;;;0.70;;
1024;SDS011;501;48.214;11.350;2023-12-22T05:12:50;3.13;;;1.03;;
1024;SDS011;501;48.214;11.350;2023-12-22T05:15:15;1.10;;;0.60;;
1024;SDS011;501;48.214;11.350;2023-12-22T05:17:41;5.43;;;1.10;;
1024;SDS011;501;48.214;11.350;2023-12-22T05:20:07;3.80;;;0.87;;
1024;SDS011;501;48.214;11.350;2023-12-22T05:22:35;0.90;;;0.90;;
1024;SDS011;501;48.214;11.350;2023-12-22T05:25:01;0.90;;;0.50;;
1024;SDS011;501;48.214;11.350;2023-12-22T05:27:30;3.70;;;0.80;;
1024;SDS011;501;48.214;11.350;2023-12-22T05:29:56;2.60;;;0.57;;
1024;SDS011;501;48.214;11.350;2023-12-22T05:32:26;1.87;;;1.00;;
1024;SDS011;501;48.214;11.350;2023-12-22T05:34:52;3.27;;;1.10;;
1024;SDS011;501;48.214;11.350;2023-12-22T05:37:18;2.37;;;0.87;;
1024;SDS011;501;48.214;11.350;2023-12-22T05:39:43;1.17;;;0.90;;
1024;SDS011;501;48.214;11.350;2023-12-22T07:22:52;2.20;;;0.87;;
1024;SDS011;501;48.214;11.350;2023-12-22T07:25:19;1.27;;;0.60;;
1024;SDS011;501;48.214;11.350;2023-12-22T07:27:45;1.10;;;1.00;;
1024;SDS011;501;48.214;11.350;2023-12-22T07:30:11;2.33;;;0.57;;
1024;SDS011;501;48.214;11.350;2023-12-22T07:32:41;3.97;;;1.20;;
1024;SDS011;501;48.214;11.350;2023-12-22T07:35:09;2.20;;;1.00;;
1024;SDS011;501;48.214;11.350;2023-12-22T07:37:37;1.87;;;1.07;;
1024;SDS011;501;48.214;11.350;2023-12-22T07:40:03;4.00;;;1.40;;
1024;SDS011;501;48.214;11.350;2023-12-22T07:42:30;2.90;;;1.10;;
1024;SDS011;501;48.214;11.350;2023-12-22T07:44:55;2.20;;;1.50;;
1024;SDS011;501;48.214;11.350;2023-12-22T07:47:21;3.63;;;1.03;;
1024;SDS011;501;48.214;11.350;2023-12-22T07:49:47;2.87;;;1.50;;
1024;SDS011;501;48.214;11.350;2023-12-22T07:52:15;4.33;;;1.40;;
1024;SDS011;501;48.214;11.350;2023-12-22T07:54:40;2.10;;;1.17;;
1024;SDS011;501;48.214;11.350;2023-12-22T07:57:06;3.43;;;1.10;;
1024;SDS011;501;48.214;11.350;2023-12-22T07:59:32;6.23;;;1.53;;
1024;SDS011;501;48.214;11.350;2023-12-22T08:01:58;3.67;;;1.17;;
1024;SDS011;501;48.214;11.350;2023-12-22T08:04:24;6.80;;;1.40;;
1024;SDS011;501;48.214;11.350;2023-12-22T08:06:50;2.53;;;1.20;;
1024;SDS011;501;48.214;11.350;2023-12-22T08:09:17;5.83;;;1.90;;
1024;SDS011;501;48.214;11.350;2023-12-22T08:11:43;6.03;;;1.90;;
1024;SDS011;501;48.214;11.350;2023-12-22T08:14:12;4.23;;;1.00;;
1024;SDS011;501;48.214;11.350;2023-12-22T08:16:38;2.77;;;1.00;;
1024;SDS011;501;48.214;11.350;2023-12-22T08:19:03;6.23;;;1.13;;
1024;SDS011;501;48.214;11.350;2023-12-22T08:21:29;3.00;;;1.50;;
1024;SDS011;501;48.214;11.350;2023-12-22T08:23:55;3.23;;;1.53;;
1024;SDS011;501;48.214;11.350;2023-12-22T08:26:21;4.23;;;1.80;;
1024;SDS011;501;48.214;11.350;2023-12-22T08:28:47;3.23;;;1.93;;
1024;SDS011;501;48.214;11.350;2023-12-22T08:31:12;3.40;;;1.53;;
1024;SDS011;501;48.214;11.350;2023-12-22T08:33:39;3.27;;;1.20;;
1024;SDS011;501;48.214;11.350;2023-12-22T08:36:09;4.70;;;1.33;;
1024;SDS011;501;48.214;11.350;2023-12-22T08:38:37;3.23;;;2.37;;
1024;SDS011;501;48.214;11.350;2023-12-22T08:41:06;2.43;;;1.27;;
1024;SDS011;501;48.214;11.350;2023-12-22T08:43:33;3.30;;;0.70;;
1024;SDS011;501;48.214;11.350;2023-12-22T08:45:59;3.80;;;1.00;;
1024;SDS011;501;48.214;11.350;2023-12-22T08:48:27;1.93;;;0.80;;
1024;SDS011;501;48.214;11.350;2023-12-22T08:50:52;4.00;;;0.70;;
1024;SDS011;501;48.214;11.350;2023-12-22T08:53:18;1.37;;;0.80;;
1024;SDS011;501;48.214;11.350;2023-12-22T08:55:44;2.37;;;1.13;;
1024;SDS011;501;48.214;11.350;2023-12-22T08:58:10;2.70;;;1.23;;
1024;SDS011;501;48.214;11.350;2023-12-22T09:00:36;2.00;;;1.17;;
1024;SDS011;501;48.214;11.350;2023-12-22T09:03:02;2.13;;;1.50;;
1024;SDS011;501;48.214;11.350;2023-12-22T09:05:28;2.47;;;1.13;;
1024;SDS011;501;48.214;11.350;2023-12-22T09:07:54;4.20;;;1.80;;
1024;SDS011;501;48.214;11.350;2023-12-22T09:10:23;2.90;;;1.13;;
1024;SDS011;501;48.214;11.350;2023-12-22T09:12:51;5.27;;;1.43;;
1024;SDS011;501;48.214;11.350;2023-12-22T09:15:17;4.33;;;1.40;;
1024;SDS011;501;48.214;11.350;2023-12-22T09:17:42;4.07;;;1.63;;
1024;SDS011;501;48.214;11.350;2023-12-22T09:20:08;4.00;;;1.40;;
1024;SDS011;501;48.214;11.350;2023-12-22T09:22:35;3.40;;;1.47;;
1024;SDS011;501;48.214;11.350;2023-12-22T09:25:00;2.73;;;1.97;;
1024;SDS011;501;48.214;11.350;2023-12-22T09:27:31;4.33;;;2.13;;
1024;SDS011;501;48.214;11.350;2023-12-22T09:29:57;4.90;;;1.30;;
1024;SDS011;501;48.214;11.350;2023-12-22T09:32:23;6.40;;;2.40;;
1024;SDS011;501;48.214;11.350;2023-12-22T09:34:49;7.03;;;1.37;;
1024;SDS011;501;48.214;11.350;2023-12-22T09:37:15;2.10;;;1.17;;
1024;SDS011;501;48.214;11.350;2023-12-22T09:39:40;5.67;;;1.90;;
1024;SDS011;501;48.214;11.350;2023-12-22T09:42:06;2.37;;;1.00;;
1024;SDS011;501;48.214;11.350;2023-12-22T09:44:32;0.83;;;0.60;;
1024;SDS011;501;48.214;11.350;2023-12-22T09:46:59;2.30;;;0.70;;
1024;SDS011;501;48.214;11.350;2023-12-22T09:49:28;4.13;;;1.20;;
1024;SDS011;501;48.214;11.350;2023-12-22T09:52:01;1.63;;;1.00;;
1024;SDS011;501;48.214;11.350;2023-12-22T09:54:28;3.03;;;0.90;;
1024;SDS011;501;48.214;11.350;2023-12-22T09:56:56;1.57;;;0.90;;
1024;SDS011;501;48.214;11.350;2023-12-22T09:59:23;1.20;;;0.70;;
1024;SDS011;501;48.214;11.350;2023-12-22T10:01:50;3.87;;;0.60;;
1024;SDS011;501;48.214;11.350;2023-12-22T10:04:18;2.73;;;0.77;;
1024;SDS011;501;48.214;11.350;2023-12-22T10:06:46;0.97;;;0.60;;
1024;SDS011;501;48.214;11.350;2023-12-22T10:09:14;0.50;;;0.50;;
1024;SDS011;501;48.214;11.350;2023-12-22T10:11:43;0.97;;;0.33;;
1024;SDS011;501;48.214;11.350;2023-12-22T10:14:10;2.40;;;0.60;;
1024;SDS011;501;48.214;11.350;2023-12-22T10:16:45;0.67;;;0.40;;
1024;SDS011;501;48.214;11.350;2023-12-22T10:19:11;1.40;;;0.70;;
1024;SDS011;501;48.214;11.350;2023-12-22T10:27:07;0.63;;;0.37;;
1024;SDS011;501;48.214;11.350;2023-12-22T10:29:33;2.43;;;0.60;;
1024;SDS011;501;48.214;11.350;2023-12-22T10:32:02;3.60;;;0.53;;
1024;SDS011;501;48.214;11.350;2023-12-22T10:34:29;0.50;;;0.50;;
1024;SDS011;501;48.214;11.350;2023-12-22T10:36:56;0.90;;;0.77;;
1024;SDS011;501;48.214;11.350;2023-12-22T10:39:26;2.60;;;0.63;;
1024;SDS011;501;48.214;11.350;2023-12-22T10:41:53;1.50;;;0.93;;
1024;SDS011;501;48.214;11.350;2023-12-22T10:44:26;0.60;;;0.60;;
1024;SDS011;501;48.214;11.350;2023-12-22T10:46:53;0.97;;;0.90;;
1024;SDS011;501;48.214;11.350;2023-12-22T10:49:20;0.97;;;0.60;;
1024;SDS011;501;48.214;11.350;2023-12-22T10:51:47;3.60;;;1.03;;
1024;SDS011;501;48.214;11.350;2023-12-22T10:54:15;3.30;;;1.20;;
1024;SDS011;501;48.214;11.350;2023-12-22T10:56:42;1.23;;;0.97;;
1024;SDS011;501;48.214;11.350;2023-12-22T10:59:11;1.70;;;1.10;;
1024;SDS011;501;48.214;11.350;2023-12-22T11:01:37;2.70;;;1.20;;
1024;SDS011;501;48.214;11.350;2023-12-22T11:04:05;1.10;;;1.00;;
1024;SDS011;501;48.214;11.350;2023-12-22T11:06:35;2.73;;;2.00;;
1024;SDS011;501;48.214;11.350;2023-12-22T11:09:07;6.23;;;2.23;;
1024;SDS011;501;48.214;11.350;2023-12-22T11:11:38;2.33;;;1.13;;
1024;SDS011;501;48.214;11.350;2023-12-22T11:14:05;1.47;;;1.00;;
1024;SDS011;501;48.214;11.350;2023-12-22T11:16:33;6.50;;;1.43;;
1024;SDS011;501;48.214;11.350;2023-12-22T11:19:01;2.10;;;1.67;;
1024;SDS011;501;48.214;11.350;2023-12-22T11:21:28;1.87;;;1.10;;
1024;SDS011;501;48.214;11.350;2023-12-22T11:23:55;3.83;;;1.47;;
1024;SDS011;501;48.214;11.350;2023-12-22T11:26:22;3.70;;;1.40;;
1024;SDS011;501;48.214;11.350;2023-12-22T11:28:49;2.50;;;1.50;;
1024;SDS011;501;48.214;11.350;2023-12-22T11:31:16;2.10;;;1.23;;
1024;SDS011;501;48.214;11.350;2023-12-22T11:33:46;2.70;;;1.20;;
1024;SDS011;501;48.214;11.350;2023-12-22T11:36:13;1.67;;;1.30;;
1024;SDS011;501;48.214;11.350;2023-12-22T11:38:40;4.87;;;1.40;;
1024;SDS011;501;48.214;11.350;2023-12-22T11:41:24;3.00;;;1.27;;
1024;SDS011;501;48.214;11.350;2023-12-22T11:43:52;1.80;;;1.07;;
1024;SDS011;501;48.214;11.350;2023-12-22T11:46:20;1.57;;;1.10;;
1024;SDS011;501;48.214;11.350;2023-12-22T11:48:49;5.33;;;1.37;;
1024;SDS011;501;48.214;11.350;2023-12-22T11:51:18;3.10;;;1.10;;
1024;SDS011;501;48.214;11.350;2023-12-22T11:53:44;1.53;;;1.13;;
1024;SDS011;501;48.214;11.350;2023-12-22T11:56:10;3.03;;;1.80;;
1024;SDS011;501;48.214;11.350;2023-12-22T11:58:47;2.33;;;1.30;;
1024;SDS011;501;48.214;11.350;2023-12-22T12:01:16;2.10;;;1.10;;
1024;SDS011;501;48.214;11.350;2023-12-22T12:03:50;2.50;;;1.10;;
1024;SDS011;501;48.214;11.350;2023-12-22T12:08:53;2.90;;;1.23;;
1024;SDS011;501;48.214;11.350;2023-12-22T12:11:22;1.80;;;1.13;;
1024;SDS011;501;48.214;11.350;2023-12-22T12:13:49;3.77;;;1.13;;
1024;SDS011;501;48.214;11.350;2023-12-22T12:16:19;6.23;;;1.17;;
1024;SDS011;501;48.214;11.350;2023-12-22T12:18:48;2.63;;;1.30;;
1024;SDS011;501;48.214;11.350;2023-12-22T12:21:15;1.33;;;0.70;;
1024;SDS011;501;48.214;11.350;2023-12-22T12:23:41;2.13;;;1.63;;
1024;SDS011;501;48.214;11.350;2023-12-22T12:26:07;2.67;;;1.70;;
1024;SDS011;501;48.214;11.350;2023-12-22T12:28:34;2.70;;;1.17;;
1024;SDS011;501;48.214;11.350;2023-12-22T12:31:05;1.80;;;1.03;;
1024;SDS011;501;48.214;11.350;2023-12-22T12:33:32;0.83;;;0.70;;
1024;SDS011;501;48.214;11.350;2023-12-22T12:35:58;3.00;;;1.30;;
1024;SDS011;501;48.214;11.350;2023-12-22T12:38:36;2.50;;;1.30;;
1024;SDS011;501;48.214;11.350;2023-12-22T12:41:13;4.00;;;1.37;;
1024;SDS011;501;48.214;11.350;2023-12-22T12:43:42;1.80;;;1.10;;
1024;SDS011;501;48.214;11.350;2023-12-22T12:46:09;2.80;;;1.10;;
1024;SDS011;501;48.214;11.350;2023-12-22T12:48:35;3.17;;;1.10;;
1024;SDS011;501;48.214;11.350;2023-12-22T12:51:04;1.63;;;0.90;;
1024;SDS011;501;48.214;11.350;2023-12-22T12:53:31;1.63;;;1.03;;
1024;SDS011;501;48.214;11.350;2023-12-22T12:55:58;1.83;;;1.23;;
1024;SDS011;501;48.214;11.350;2023-12-22T12:58:30;1.17;;;0.83;;
1024;SDS011;501;48.214;11.350;2023-12-22T13:01:07;2.53;;;1.13;;
1024;SDS011;501;48.214;11.350;2023-12-22T13:03:54;3.20;;;1.30;;
1024;SDS011;501;48.214;11.350;2023-12-22T13:06:21;3.97;;;1.07;;
1024;SDS011;501;48.214;11.350;2023-12-22T13:08:50;1.60;;;0.70;;
1024;SDS011;501;48.214;11.350;2023-12-22T13:11:23;5.80;;;1.30;;
1024;SDS011;501;48.214;11.350;2023-12-22T13:13:51;2.30;;;1.00;;
1024;SDS011;501;48.214;11.350;2023-12-22T13:16:18;3.90;;;1.07;;
1024;SDS011;501;48.214;11.350;2023-12-22T13:18:46;1.43;;;0.93;;
1024;SDS011;501;48.214;11.350;2023-12-22T13:21:12;2.30;;;1.37;;
1024;SDS011;501;48.214;11.350;2023-12-22T13:23:39;1.03;;;0.83;;
1024;SDS011;501;48.214;11.350;2023-12-22T13:26:05;5.43;;;1.40;;
1024;SDS011;501;48.214;11.350;2023-12-22T13:28:30;4.03;;;1.57;;
1024;SDS011;501;48.214;11.350;2023-12-22T13:30:56;1.77;;;1.20;;
1024;SDS011;501;48.214;11.350;2023-12-22T13:33:22;4.30;;;2.13;;
1024;SDS011;501;48.214;11.350;2023-12-22T13:35:55;2.17;;;1.20;;
1024;SDS011;501;48.214;11.350;2023-12-22T13:38:22;1.60;;;1.07;;
1024;SDS011;501;48.214;11.350;2023-12-22T13:40:49;1.70;;;1.60;;
1024;SDS011;501;48.214;11.350;2023-12-22T13:43:15;2.23;;;1.50;;
1024;SDS011;501;48.214;11.350;2023-12-22T13:45:48;2.03;;;1.80;;
1024;SDS011;501;48.214;11.350;2023-12-22T13:48:16;1.90;;;1.80;;
1024;SDS011;501;48.214;11.350;2023-12-22T13:50:41;2.20;;;1.00;;
1024;SDS011;501;48.214;11.350;2023-12-22T13:53:10;6.70;;;1.33;;
1024;SDS011;501;48.214;11.350;2023-12-22T13:55:36;2.17;;;1.00;;
1024;SDS011;501;48.214;11.350;2023-12-22T13:58:03;2.40;;;1.27;;
1024;SDS011;501;48.214;11.350;2023-12-22T14:00:29;2.43;;;1.00;;
1024;SDS011;501;48.214;11.350;2023-12-22T14:02:56;2.83;;;1.23;;
1024;SDS011;501;48.214;11.350;2023-12-22T14:05:22;1.13;;;0.90;;
1024;SDS011;501;48.214;11.350;2023-12-22T14:07:48;1.10;;;1.00;;
1024;SDS011;501;48.214;11.350;2023-12-22T14:10:14;1.13;;;0.77;;
1024;SDS011;501;48.214;11.350;2023-12-22T14:12:40;2.40;;;1.20;;
1024;SDS011;501;48.214;11.350;2023-12-22T14:17:37;7.00;;;1.80;;
1024;SDS011;501;48.214;11.350;2023-12-22T14:20:03;3.00;;;1.40;;
1024;SDS011;501;48.214;11.350;2023-12-22T14:22:30;4.33;;;0.97;;
1024;SDS011;501;48.214;11.350;2023-12-22T14:24:56;3.53;;;1.20;;
1024;SDS011;501;48.214;11.350;2023-12-22T14:27:24;1.23;;;1.13;;
1024;SDS011;501;48.214;11.350;2023-12-22T14:29:50;1.90;;;0.97;;
1024;SDS011;501;48.214;11.350;2023-12-22T14:32:19;3.60;;;1.47;;
1024;SDS011;501;48.214;11.350;2023-12-22T14:34:45;2.60;;;1.13;;
1024;SDS011;501;48.214;11.350;2023-12-22T14:37:11;3.67;;;1.00;;
1024;SDS011;501;48.214;11.350;2023-12-22T14:39:38;4.63;;;1.23;;
1024;SDS011;501;48.214;11.350;2023-12-22T14:42:03;0.93;;;0.87;;
1024;SDS011;501;48.214;11.350;2023-12-22T14:44:29;1.90;;;1.03;;
1024;SDS011;501;48.214;11.350;2023-12-22T14:46:55;1.70;;;1.13;;
1024;SDS011;501;48.214;11.350;2023-12-22T14:49:20;2.77;;;1.33;;
1024;SDS011;501;48.214;11.350;2023-12-22T14:51:48;3.83;;;0.97;;
1024;SDS011;501;48.214;11.350;2023-12-22T14:54:18;1.23;;;1.00;;
1024;SDS011;501;48.214;11.350;2023-12-22T14:56:44;1.83;;;1.10;;
1024;SDS011;501;48.214;11.350;2023-12-22T14:59:12;1.47;;;0.70;;
1024;SDS011;501;48.214;11.350;2023-12-22T15:01:39;3.33;;;1.10;;
1024;SDS011;501;48.214;11.350;2023-12-22T15:04:05;2.10;;;1.10;;
1024;SDS011;501;48.214;11.350;2023-12-22T15:06:32;3.30;;;0.60;;
1024;SDS011;501;48.214;11.350;2023-12-22T15:08:58;1.00;;;0.70;;
1024;SDS011;501;48.214;11.350;2023-12-22T15:11:24;1.50;;;0.90;;
1024;SDS011;501;48.214;11.350;2023-12-22T15:13:51;1.10;;;0.73;;
1024;SDS011;501;48.214;11.350;2023-12-22T15:16:17;1.53;;;1.10;;
1024;SDS011;501;48.214;11.350;2023-12-22T15:18:42;0.60;;;0.60;;
1024;SDS011;501;48.214;11.350;2023-12-22T15:21:08;1.10;;;1.03;;
1024;SDS011;501;48.214;11.350;2023-12-22T15:23:34;0.97;;;0.57;;
1024;SDS011;501;48.214;11.350;2023-12-22T15:25:59;0.73;;;0.70;;
1024;SDS011;501;48.214;11.350;2023-12-22T15:28:25;0.70;;;0.70;;
1024;SDS011;501;48.214;11.350;2023-12-22T15:30:51;1.33;;;0.60;;
1024;SDS011;501;48.214;11.350;2023-12-22T15:36:08;0.80;;;0.50;;
1024;SDS011;501;48.214;11.350;2023-12-22T15:38:33;1.00;;;0.60;;
1024;SDS011;501;48.214;11.350;2023-12-22T15:41:01;2.83;;;0.97;;
1024;SDS011;501;48.214;11.350;2023-12-22T15:43:27;0.83;;;0.50;;
1024;SDS011;501;48.214;11.350;2023-12-22T15:45:53;0.67;;;0.63;;
1024;SDS011;501;48.214;11.350;2023-12-22T15:48:22;1.00;;;1.00;;
1024;SDS011;501;48.214;11.350;2023-12-22T15:50:47;1.20;;;1.03;;
1024;SDS011;501;48.214;11.350;2023-12-22T15:53:13;1.00;;;0.90;;
1024;SDS011;501;48.214;11.350;2023-12-22T15:55:40;0.60;;;0.43;;
1024;SDS011;501;48.214;11.350;2023-12-22T15:58:05;0.57;;;0.57;;
1024;SDS011;501;48.214;11.350;2023-12-22T16:00:31;0.90;;;0.90;;
1024;SDS011;501;48.214;11.350;2023-12-22T16:02:57;1.23;;;1.00;;
1024;SDS011;501;48.214;11.350;2023-12-22T16:05:22;0.63;;;0.63;;
1024;SDS011;501;48.214;11.350;2023-12-22T16:07:50;1.80;;;0.97;;
1024;SDS011;501;48.214;11.350;2023-12-22T16:10:16;0.60;;;0.60;;
1024;SDS011;501;48.214;11.350;2023-12-22T16:12:43;0.50;;;0.40;;
1024;SDS011;501;48.214;11.350;2023-12-22T16:15:09;0.60;;;0.60;;
1024;SDS011;501;48.214;11.350;2023-12-22T16:17:35;0.40;;;0.40;;
1024;SDS011;501;48.214;11.350;2023-12-22T16:20:01;0.63;;;0.60;;
1024;SDS011;501;48.214;11.350;2023-12-22T16:22:26;0.60;;;0.60;;
1024;SDS011;501;48.214;11.350;2023-12-22T16:24:52;0.70;;;0.50;;
1024;SDS011;501;48.214;11.350;2023-12-22T16:27:18;1.23;;;0.60;;
1024;SDS011;501;48.214;11.350;2023-12-22T16:29:44;0.53;;;0.53;;
1024;SDS011;501;48.214;11.350;2023-12-22T16:32:11;0.70;;;0.70;;
1024;SDS011;501;48.214;11.350;2023-12-22T16:34:41;0.53;;;0.53;;
1024;SDS011;501;48.214;11.350;2023-12-22T16:37:11;0.43;;;0.43;;
1024;SDS011;501;48.214;11.350;2023-12-22T16:39:48;0.40;;;0.40;;
1024;SDS011;501;48.214;11.350;2023-12-22T16:42:15;0.60;;;0.60;;
1024;SDS011;501;48.214;11.350;2023-12-22T16:44:41;0.60;;;0.50;;
1024;SDS011;501;48.214;11.350;2023-12-22T16:47:06;0.40;;;0.40;;
1024;SDS011;501;48.214;11.350;2023-12-22T16:49:32;0.60;;;0.60;;
1024;SDS011;501;48.214;11.350;2023-12-22T16:52:00;0.70;;;0.70;;
1024;SDS011;501;48.214;11.350;2023-12-22T16:54:26;1.10;;;0.60;;
1024;SDS011;501;48.214;11.350;2023-12-22T16:56:51;0.53;;;0.50;;
1024;SDS011;501;48.214;11.350;2023-12-22T16:59:17;0.70;;;0.70;;
1024;SDS011;501;48.214;11.350;2023-12-22T17:01:45;0.60;;;0.40;;
1024;SDS011;501;48.214;11.350;2023-12-22T17:04:13;1.00;;;0.80;;
1024;SDS011;501;48.214;11.350;2023-12-22T17:06:47;1.03;;;1.00;;
1024;SDS011;501;48.214;11.350;2023-12-22T17:09:16;0.70;;;0.70;;
1024;SDS011;501;48.214;11.350;2023-12-22T17:11:43;0.50;;;0.43;;
1024;SDS011;501;48.214;11.350;2023-12-22T17:14:09;0.70;;;0.40;;
1024;SDS011;501;48.214;11.350;2023-12-22T17:16:36;0.87;;;0.60;;
1024;SDS011;501;48.214;11.350;2023-12-22T17:19:02;0.60;;;0.50;;
1024;SDS011;501;48.214;11.350;2023-12-22T17:21:28;0.43;;;0.43;;
1024;SDS011;501;48.214;11.350;2023-12-22T17:23:55;0.60;;;0.57;;
1024;SDS011;501;48.214;11.350;2023-12-22T17:26:21;0.50;;;0.50;;
1024;SDS011;501;48.214;11.350;2023-12-22T17:28:46;0.70;;;0.50;;
1024;SDS011;501;48.214;11.350;2023-12-22T17:31:14;0.50;;;0.50;;
1024;SDS011;501;48.214;11.350;2023-12-22T17:33:40;0.63;;;0.53;;
1024;SDS011;501;48.214;11.350;2023-12-22T17:36:06;0.50;;;0.50;;
1024;SDS011;501;48.214;11.350;2023-12-22T17:38:31;0.60;;;0.60;;
1024;SDS011;501;48.214;11.350;2023-12-22T17:40:57;0.63;;;0.50;;
1024;SDS011;501;48.214;11.350;2023-12-22T17:43:22;4.10;;;0.60;;
1024;SDS011;501;48.214;11.350;2023-12-22T17:45:48;0.80;;;0.67;;
1024;SDS011;501;48.214;11.350;2023-12-22T17:48:14;0.63;;;0.63;;
1024;SDS011;501;48.214;11.350;2023-12-22T17:50:39;1.00;;;0.70;;
1024;SDS011;501;48.214;11.350;2023-12-22T17:53:08;0.30;;;0.30;;
1024;SDS011;501;48.214;11.350;2023-12-22T17:55:34;0.60;;;0.60;;
1024;SDS011;501;48.214;11.350;2023-12-22T17:57:59;0.80;;;0.53;;
1024;SDS011;501;48.214;11.350;2023-12-22T18:00:25;1.13;;;0.60;;
1024;SDS011;501;48.214;11.350;2023-12-22T18:02:50;0.30;;;0.30;;
1024;SDS011;501;48.214;11.350;2023-12-22T18:05:16;0.60;;;0.60;;
1024;SDS011;501;48.214;11.350;2023-12-22T18:07:42;0.40;;;0.40;;
1024;SDS011;501;48.214;11.350;2023-12-22T18:10:08;0.53;;;0.50;;
1024;SDS011;501;48.214;11.350;2023-12-22T18:12:35;0.80;;;0.80;;
1024;SDS011;501;48.214;11.350;2023-12-22T18:15:00;0.47;;;0.47;;
1024;SDS011;501;48.214;11.350;2023-12-22T18:17:28;0.80;;;0.50;;
1024;SDS011;501;48.214;11.350;2023-12-22T18:19:53;0.90;;;0.90;;
1024;SDS011;501;48.214;11.350;2023-12-22T18:22:19;0.73;;;0.73;;
1024;SDS011;501;48.214;11.350;2023-12-22T18:24:45;0.93;;;0.90;;
1024;SDS011;501;48.214;11.350;2023-12-22T18:27:11;0.63;;;0.63;;
1024;SDS011;501;48.214;11.350;2023-12-22T18:29:36;1.00;;;0.70;;
1024;SDS011;501;48.214;11.350;2023-12-22T18:32:02;1.50;;;0.80;;
1024;SDS011;501;48.214;11.350;2023-12-22T18:34:31;0.60;;;0.60;;